CheckWX is a tool to help pilots better visualize weather data.  It is not intended as a substitute for an official pre-flight weather briefing.

23:16:47 UTC

KHZD METAR
Carroll County Airport
Huntingdon, Tennessee, USA
Current

22 mins ago

KHZD 262255Z AUTO 17014G19KT 7SM SCT015 SCT019 BKN040 21/20 A2995 RMK A01 P0001
Observed
May-26 @ 22:55 UTC
Wind
  • 170° at 14 KTS
  • Gusting to 19 KTS
Visibility
Flight Rules
VFR
Cloud Levels
  • Scattered at 1,500' AGL
  • Scattered at 1,900' AGL
  • Broken at 4,000' AGL
Temperature
21°C / 70°F
Dewpoint
20°C / 68°F
Humidity
94%
Altimeter
29.95" Hg
Pressure
1014.22 hPa
Current Rain
0.01"
Previous

42 mins ago

KHZD 262235Z AUTO 15009KT 10SM SCT014 SCT019 22/21 A2995 RMK A01
Observed
May-26 @ 22:35 UTC
Wind
  • 150° at 9 KTS
Visibility
Flight Rules
VFR
Cloud Levels
  • Scattered at 1,400' AGL
  • Scattered at 1,900' AGL
Temperature
22°C / 72°F
Dewpoint
21°C / 70°F
Humidity
94%
Altimeter
29.95" Hg
Pressure
1014.22 hPa
Previous

1 hour ago

KHZD 262215Z AUTO 16009KT 9SM FEW013 FEW019 22/21 A2995 RMK A01
Observed
May-26 @ 22:15 UTC
Wind
  • 160° at 9 KTS
Visibility
Flight Rules
VFR
Cloud Levels
  • Few at 1,300' AGL
  • Few at 1,900' AGL
Temperature
22°C / 72°F
Dewpoint
21°C / 70°F
Humidity
94%
Altimeter
29.95" Hg
Pressure
1014.22 hPa